Bookmark and Share
Track history (hours):
 

Sedna Desgagnes

Last reported at 2013-Nov-09 09:26 UTC. Time now 2014-Apr-16 16:07 UTC.
Position N 46°33' W 072°09'.
Warning: this ship's position is months out of date.

Length 139 m; draft 5.6 m.

Type: Cargo ship. MMSI: 316015251.

NotesDate/timePositionNaut miles runAvg speedWind from/ knotsBaromVisibWave heightAir tempDewpointWater temp
2013-Nov-09 09:26N 46°33' W 072°09'1314.9
2013-Nov-09 08:33N 46°25' W 072°23'1313.4
2013-Nov-09 07:33N 46°16' W 072°38'60 9.7
2013-Nov-09 01:21N 45°28' W 073°30'3 2.8
2013-Nov-09 00:27N 45°26' W 073°30'3 3.3
2013-Nov-08 23:33N 45°24' W 073°34'2 2.4
2013-Nov-08 22:32N 45°24' W 073°37'3 3.0
2013-Nov-08 21:33N 45°25' W 073°41'5 5.3
2013-Nov-08 20:33N 45°23' W 073°48'0 0.4
2013-Nov-08 19:33N 45°23' W 073°49'8 8.2
2013-Nov-08 18:33N 45°24' W 073°37'1 1.3
2013-Nov-08 17:33N 45°24' W 073°36'0 0.0
2013-Nov-08 16:28N 45°24' W 073°36'0 0.0
2013-Nov-08 15:22N 45°24' W 073°36'0 0.0
2013-Nov-08 14:28N 45°24' W 073°36'0 0.0
2013-Nov-08 13:28N 45°24' W 073°36'0 0.0
2013-Nov-08 12:28N 45°24' W 073°36'0 0.0
2013-Nov-08 11:28N 45°24' W 073°36'0 0.0
2013-Nov-08 10:28N 45°24' W 073°36'0 0.0
2013-Nov-08 09:28N 45°24' W 073°36'0 0.0
2013-Nov-08 08:28N 45°24' W 073°36'0 0.0
2013-Nov-08 07:28N 45°24' W 073°36'0 0.0
2013-Nov-08 06:10N 45°24' W 073°36'0 0.0
2013-Nov-08 05:28N 45°24' W 073°36'0 0.0
2013-Nov-08 04:28N 45°24' W 073°36'0 0.0
2013-Nov-08 03:28N 45°24' W 073°36'0 0.0
2013-Nov-08 02:22N 45°24' W 073°36'0 0.0
2013-Nov-08 01:28N 45°24' W 073°36'0 0.0
2013-Nov-08 00:22N 45°24' W 073°36'0 0.0
2013-Nov-07 23:16N 45°24' W 073°36'0 0.0
2013-Nov-07 22:22N 45°24' W 073°36'0 0.0
2013-Nov-07 21:28N 45°24' W 073°36'0 0.0
2013-Nov-07 20:28N 45°24' W 073°36'0 0.0
2013-Nov-07 18:16N 45°24' W 073°36'0 0.0
2013-Nov-07 17:10N 45°24' W 073°36'0 0.0
2013-Nov-07 16:28N 45°24' W 073°36'0 0.0
2013-Nov-07 15:22N 45°24' W 073°36'0 0.0
2013-Nov-07 14:22N 45°24' W 073°36'0 0.0
2013-Nov-07 13:16N 45°24' W 073°36'0 0.0
2013-Nov-07 12:28N 45°24' W 073°36'0 0.0
2013-Nov-07 11:13N 45°24' W 073°36'0 0.0
2013-Nov-07 10:28N 45°24' W 073°36'0 0.0
2013-Nov-07 09:10N 45°24' W 073°36'0 0.0
2013-Nov-07 08:28N 45°24' W 073°36'0 0.0
2013-Nov-07 07:22N 45°24' W 073°36'0 0.0
2013-Nov-07 06:28N 45°24' W 073°36'0 0.0
2013-Nov-07 05:22N 45°24' W 073°36'0 0.0
2013-Nov-07 04:31N 45°24' W 073°36'0 0.0
2013-Nov-07 03:31N 45°24' W 073°36'0 0.0
2013-Nov-07 02:31N 45°24' W 073°36'0 0.0
2013-Nov-07 01:19N 45°24' W 073°36'0 0.0
2013-Nov-07 00:31N 45°24' W 073°36'0 0.0
2013-Nov-06 23:31N 45°24' W 073°36'0 0.0
2013-Nov-06 22:31N 45°24' W 073°36'0 0.0
2013-Nov-06 21:25N 45°24' W 073°36'0 0.0
2013-Nov-06 20:31N 45°24' W 073°36'0 0.0
2013-Nov-06 19:22N 45°24' W 073°36'0 0.0
2013-Nov-06 18:16N 45°24' W 073°36'0 0.0
2013-Nov-06 16:07N 45°24' W 073°36'0 0.0
2013-Nov-06 15:28N 45°24' W 073°36'0 0.0
2013-Nov-06 14:04N 45°24' W 073°36'0 0.0
2013-Nov-06 12:28N 45°24' W 073°36'0 0.0
2013-Nov-06 11:33N 45°24' W 073°36'1 1.2
2013-Nov-06 10:33N 45°24' W 073°34'52 5.8
2013-Nov-06 01:31N 46°10' W 072°56'1111.9
2013-Nov-06 00:33N 46°16' W 072°42'8 8.3
2013-Nov-05 23:33N 46°20' W 072°32'1111.1
2013-Nov-05 22:34N 46°26' W 072°19'1010.2
2013-Nov-05 21:33N 46°34' W 072°08'10 9.2
2013-Nov-05 20:30N 46°38' W 071°56'  

Dump ship's entire track history

sailing weather and tide predictions

Sedna Desgagnes — CYQE — position and weather